sensor_id;sensor_type;location;lat;lon;timestamp;pressure;altitude;pressure_sealevel;temperature;humidity
74163;BME280;62515;52.758;5.076;2023-03-23T00:02:23;100104.22;;;10.57;100.00
74163;BME280;62515;52.758;5.076;2023-03-23T00:04:50;100091.38;;;10.62;100.00
74163;BME280;62515;52.758;5.076;2023-03-23T00:07:16;100093.31;;;10.60;100.00
74163;BME280;62515;52.758;5.076;2023-03-23T00:09:41;100094.16;;;10.61;100.00
74163;BME280;62515;52.758;5.076;2023-03-23T00:12:08;100096.81;;;10.61;100.00
74163;BME280;62515;52.758;5.076;2023-03-23T00:14:36;100097.56;;;10.63;100.00
74163;BME280;62515;52.758;5.076;2023-03-23T00:17:02;100090.88;;;10.68;100.00
74163;BME280;62515;52.758;5.076;2023-03-23T00:19:30;100079.00;;;10.72;100.00
74163;BME280;62515;52.758;5.076;2023-03-23T00:21:57;100080.56;;;10.75;100.00
74163;BME280;62515;52.758;5.076;2023-03-23T00:24:24;100075.81;;;10.78;100.00
74163;BME280;62515;52.758;5.076;2023-03-23T00:26:50;100062.88;;;10.74;100.00
74163;BME280;62515;52.758;5.076;2023-03-23T00:29:17;100060.59;;;10.90;100.00
74163;BME280;62515;52.758;5.076;2023-03-23T00:31:45;100058.69;;;10.92;100.00
74163;BME280;62515;52.758;5.076;2023-03-23T00:34:11;100056.13;;;10.90;100.00
74163;BME280;62515;52.758;5.076;2023-03-23T00:36:36;100053.22;;;10.93;100.00
74163;BME280;62515;52.758;5.076;2023-03-23T00:39:03;100052.50;;;10.91;100.00
74163;BME280;62515;52.758;5.076;2023-03-23T00:41:29;100048.47;;;10.97;100.00
74163;BME280;62515;52.758;5.076;2023-03-23T00:43:56;100043.47;;;11.03;100.00
74163;BME280;62515;52.758;5.076;2023-03-23T00:46:23;100037.88;;;11.07;100.00
74163;BME280;62515;52.758;5.076;2023-03-23T00:48:52;100038.34;;;11.12;100.00
74163;BME280;62515;52.758;5.076;2023-03-23T00:51:19;100037.88;;;11.07;100.00
74163;BME280;62515;52.758;5.076;2023-03-23T00:53:45;100032.44;;;11.08;100.00
74163;BME280;62515;52.758;5.076;2023-03-23T00:56:14;100033.00;;;11.12;100.00
74163;BME280;62515;52.758;5.076;2023-03-23T00:58:40;100017.31;;;11.09;100.00
74163;BME280;62515;52.758;5.076;2023-03-23T01:01:06;100022.47;;;11.10;100.00
74163;BME280;62515;52.758;5.076;2023-03-23T01:03:32;100013.63;;;11.10;100.00
74163;BME280;62515;52.758;5.076;2023-03-23T01:06:04;100023.16;;;11.12;100.00
74163;BME280;62515;52.758;5.076;2023-03-23T01:08:30;100002.44;;;11.16;100.00
74163;BME280;62515;52.758;5.076;2023-03-23T01:11:02;100003.34;;;11.26;100.00
74163;BME280;62515;52.758;5.076;2023-03-23T01:13:28;99993.41;;;11.28;100.00
74163;BME280;62515;52.758;5.076;2023-03-23T01:15:53;99999.41;;;11.20;100.00
74163;BME280;62515;52.758;5.076;2023-03-23T01:18:19;99995.50;;;11.24;100.00
74163;BME280;62515;52.758;5.076;2023-03-23T01:20:44;99988.59;;;11.22;100.00
74163;BME280;62515;52.758;5.076;2023-03-23T01:23:11;99999.69;;;11.27;100.00
74163;BME280;62515;52.758;5.076;2023-03-23T01:25:37;99991.13;;;11.23;100.00
74163;BME280;62515;52.758;5.076;2023-03-23T01:28:03;99995.50;;;11.24;100.00
74163;BME280;62515;52.758;5.076;2023-03-23T01:30:29;100009.13;;;11.31;100.00
74163;BME280;62515;52.758;5.076;2023-03-23T01:32:55;100002.78;;;11.32;100.00
74163;BME280;62515;52.758;5.076;2023-03-23T01:35:22;99982.47;;;11.31;100.00
74163;BME280;62515;52.758;5.076;2023-03-23T01:37:48;99975.19;;;11.33;100.00
74163;BME280;62515;52.758;5.076;2023-03-23T01:40:15;99989.19;;;11.35;100.00
74163;BME280;62515;52.758;5.076;2023-03-23T01:42:42;99988.22;;;11.36;100.00
74163;BME280;62515;52.758;5.076;2023-03-23T01:45:22;99984.72;;;11.35;100.00
74163;BME280;62515;52.758;5.076;2023-03-23T01:47:51;99983.63;;;11.38;100.00
74163;BME280;62515;52.758;5.076;2023-03-23T01:50:22;99970.16;;;11.39;100.00
74163;BME280;62515;52.758;5.076;2023-03-23T01:52:50;99959.66;;;11.38;100.00
74163;BME280;62515;52.758;5.076;2023-03-23T01:55:19;99973.66;;;11.40;100.00
74163;BME280;62515;52.758;5.076;2023-03-23T01:57:47;99969.34;;;11.48;100.00
74163;BME280;62515;52.758;5.076;2023-03-23T02:00:15;99958.41;;;11.51;100.00
74163;BME280;62515;52.758;5.076;2023-03-23T02:02:49;99962.88;;;11.51;100.00
74163;BME280;62515;52.758;5.076;2023-03-23T02:05:22;99962.63;;;11.54;100.00
74163;BME280;62515;52.758;5.076;2023-03-23T02:07:51;99962.88;;;11.51;100.00
74163;BME280;62515;52.758;5.076;2023-03-23T02:10:19;99958.69;;;11.48;100.00
74163;BME280;62515;52.758;5.076;2023-03-23T02:12:44;99952.94;;;11.43;100.00
74163;BME280;62515;52.758;5.076;2023-03-23T02:15:13;99959.22;;;11.42;100.00
74163;BME280;62515;52.758;5.076;2023-03-23T02:17:45;99961.78;;;11.44;100.00
74163;BME280;62515;52.758;5.076;2023-03-23T02:20:24;99946.59;;;11.44;100.00
74163;BME280;62515;52.758;5.076;2023-03-23T02:23:12;99944.66;;;11.46;100.00
74163;BME280;62515;52.758;5.076;2023-03-23T02:25:55;99945.50;;;11.47;100.00
74163;BME280;62515;52.758;5.076;2023-03-23T02:28:34;99966.91;;;11.36;100.00
74163;BME280;62515;52.758;5.076;2023-03-23T02:31:16;99961.53;;;11.17;100.00
74163;BME280;62515;52.758;5.076;2023-03-23T02:33:49;99957.16;;;11.06;100.00
74163;BME280;62515;52.758;5.076;2023-03-23T02:36:23;99960.03;;;10.93;100.00
74163;BME280;62515;52.758;5.076;2023-03-23T02:38:59;99961.00;;;10.92;100.00
74163;BME280;62515;52.758;5.076;2023-03-23T02:41:30;99963.63;;;10.83;100.00
74163;BME280;62515;52.758;5.076;2023-03-23T02:43:57;99951.69;;;10.77;100.00
74163;BME280;62515;52.758;5.076;2023-03-23T02:46:25;99951.13;;;10.74;100.00
74163;BME280;62515;52.758;5.076;2023-03-23T02:48:55;99955.75;;;10.72;100.00
74163;BME280;62515;52.758;5.076;2023-03-23T02:51:24;99953.19;;;10.70;100.00
74163;BME280;62515;52.758;5.076;2023-03-23T02:53:50;99958.66;;;10.69;100.00
74163;BME280;62515;52.758;5.076;2023-03-23T02:56:17;99949.25;;;10.65;100.00
74163;BME280;62515;52.758;5.076;2023-03-23T02:58:44;99932.28;;;10.56;100.00
74163;BME280;62515;52.758;5.076;2023-03-23T03:01:50;99954.63;;;10.54;100.00
74163;BME280;62515;52.758;5.076;2023-03-23T03:04:22;99956.28;;;10.45;100.00
74163;BME280;62515;52.758;5.076;2023-03-23T03:06:57;99947.13;;;10.38;100.00
74163;BME280;62515;52.758;5.076;2023-03-23T03:09:32;99966.00;;;10.35;100.00
74163;BME280;62515;52.758;5.076;2023-03-23T03:12:08;99955.69;;;10.41;100.00
74163;BME280;62515;52.758;5.076;2023-03-23T03:14:38;99946.22;;;10.48;100.00
74163;BME280;62515;52.758;5.076;2023-03-23T03:17:10;99938.13;;;10.50;100.00
74163;BME280;62515;52.758;5.076;2023-03-23T03:19:45;99950.84;;;10.46;100.00
74163;BME280;62515;52.758;5.076;2023-03-23T03:22:13;99949.53;;;10.41;100.00
74163;BME280;62515;52.758;5.076;2023-03-23T03:24:41;99944.19;;;10.41;100.00
74163;BME280;62515;52.758;5.076;2023-03-23T03:27:13;99954.13;;;10.39;100.00
74163;BME280;62515;52.758;5.076;2023-03-23T03:29:46;99954.31;;;10.47;100.00
74163;BME280;62515;52.758;5.076;2023-03-23T03:32:17;99952.50;;;10.47;100.00
74163;BME280;62515;52.758;5.076;2023-03-23T03:34:46;99958.22;;;10.43;100.00
74163;BME280;62515;52.758;5.076;2023-03-23T03:37:12;99950.50;;;10.40;100.00
74163;BME280;62515;52.758;5.076;2023-03-23T03:39:39;99949.00;;;10.47;100.00
74163;BME280;62515;52.758;5.076;2023-03-23T03:42:05;99963.88;;;10.49;100.00
74163;BME280;62515;52.758;5.076;2023-03-23T03:44:31;99951.16;;;10.53;100.00
74163;BME280;62515;52.758;5.076;2023-03-23T03:46:57;99939.78;;;10.51;100.00
74163;BME280;62515;52.758;5.076;2023-03-23T03:49:22;99950.44;;;10.51;100.00
74163;BME280;62515;52.758;5.076;2023-03-23T03:51:49;99939.53;;;10.54;100.00
74163;BME280;62515;52.758;5.076;2023-03-23T03:54:23;99950.97;;;10.45;100.00
74163;BME280;62515;52.758;5.076;2023-03-23T03:56:49;99954.56;;;10.44;100.00
74163;BME280;62515;52.758;5.076;2023-03-23T03:59:34;99959.19;;;10.42;100.00
74163;BME280;62515;52.758;5.076;2023-03-23T04:02:12;99980.22;;;10.45;100.00
74163;BME280;62515;52.758;5.076;2023-03-23T04:04:37;99966.06;;;10.44;100.00
74163;BME280;62515;52.758;5.076;2023-03-23T04:07:04;99975.84;;;10.44;100.00
74163;BME280;62515;52.758;5.076;2023-03-23T04:09:30;99959.19;;;10.42;100.00
74163;BME280;62515;52.758;5.076;2023-03-23T04:11:57;99954.84;;;10.41;100.00
74163;BME280;62515;52.758;5.076;2023-03-23T04:14:42;99942.59;;;10.29;100.00
74163;BME280;62515;52.758;5.076;2023-03-23T04:17:08;99933.50;;;10.31;100.00
74163;BME280;62515;52.758;5.076;2023-03-23T04:19:34;99947.22;;;10.27;100.00
74163;BME280;62515;52.758;5.076;2023-03-23T04:22:01;99964.72;;;10.29;100.00
74163;BME280;62515;52.758;5.076;2023-03-23T04:24:31;99970.41;;;10.25;100.00
74163;BME280;62515;52.758;5.076;2023-03-23T04:26:57;99970.06;;;10.18;100.00
74163;BME280;62515;52.758;5.076;2023-03-23T04:29:27;99975.78;;;10.14;100.00
74163;BME280;62515;52.758;5.076;2023-03-23T04:32:11;99968.31;;;10.08;100.00
74163;BME280;62515;52.758;5.076;2023-03-23T04:34:42;99960.97;;;10.00;100.00
74163;BME280;62515;52.758;5.076;2023-03-23T04:37:10;99970.47;;;10.03;100.00
74163;BME280;62515;52.758;5.076;2023-03-23T04:39:37;99990.31;;;9.98;100.00
74163;BME280;62515;52.758;5.076;2023-03-23T04:42:03;99993.22;;;9.95;100.00
74163;BME280;62515;52.758;5.076;2023-03-23T04:44:47;99982.81;;;10.04;100.00
74163;BME280;62515;52.758;5.076;2023-03-23T04:47:13;99997.28;;;10.11;100.00
74163;BME280;62515;52.758;5.076;2023-03-23T04:49:48;99994.03;;;10.07;100.00
74163;BME280;62515;52.758;5.076;2023-03-23T04:52:22;99994.16;;;10.06;100.00
74163;BME280;62515;52.758;5.076;2023-03-23T04:54:54;100010.09;;;10.06;100.00
74163;BME280;62515;52.758;5.076;2023-03-23T04:57:20;99998.88;;;10.02;100.00
74163;BME280;62515;52.758;5.076;2023-03-23T05:00:07;100002.03;;;9.96;100.00
74163;BME280;62515;52.758;5.076;2023-03-23T05:02:39;100009.31;;;9.94;100.00
74163;BME280;62515;52.758;5.076;2023-03-23T05:05:05;100003.50;;;9.89;100.00
74163;BME280;62515;52.758;5.076;2023-03-23T05:07:31;100030.22;;;9.87;100.00
74163;BME280;62515;52.758;5.076;2023-03-23T05:09:58;100020.44;;;9.88;100.00
74163;BME280;62515;52.758;5.076;2023-03-23T05:12:27;100022.13;;;9.89;100.00
74163;BME280;62515;52.758;5.076;2023-03-23T05:15:05;100027.81;;;9.84;100.00
74163;BME280;62515;52.758;5.076;2023-03-23T05:17:33;100026.13;;;9.83;100.00
74163;BME280;62515;52.758;5.076;2023-03-23T05:20:04;100018.66;;;9.77;100.00
74163;BME280;62515;52.758;5.076;2023-03-23T05:22:35;100016.34;;;9.73;100.00
74163;BME280;62515;52.758;5.076;2023-03-23T05:25:05;100028.69;;;9.74;100.00
74163;BME280;62515;52.758;5.076;2023-03-23T05:27:35;100032.56;;;9.70;100.00
74163;BME280;62515;52.758;5.076;2023-03-23T05:30:10;100041.38;;;9.70;100.00
74163;BME280;62515;52.758;5.076;2023-03-23T05:32:38;100054.91;;;9.67;100.00
74163;BME280;62515;52.758;5.076;2023-03-23T05:35:22;100046.94;;;9.67;100.00
74163;BME280;62515;52.758;5.076;2023-03-23T05:37:51;100050.44;;;9.68;100.00
74163;BME280;62515;52.758;5.076;2023-03-23T05:40:18;100044.97;;;9.69;100.00
74163;BME280;62515;52.758;5.076;2023-03-23T05:42:52;100044.78;;;9.61;100.00
74163;BME280;62515;52.758;5.076;2023-03-23T05:45:25;100045.88;;;9.59;100.00
74163;BME280;62515;52.758;5.076;2023-03-23T05:47:51;100046.34;;;9.53;100.00
74163;BME280;62515;52.758;5.076;2023-03-23T05:50:19;100040.31;;;9.51;100.00
74163;BME280;62515;52.758;5.076;2023-03-23T05:52:46;100048.88;;;9.43;100.00
74163;BME280;62515;52.758;5.076;2023-03-23T05:55:14;100051.53;;;9.43;100.00
74163;BME280;62515;52.758;5.076;2023-03-23T05:57:44;100044.91;;;9.49;100.00
74163;BME280;62515;52.758;5.076;2023-03-23T06:00:22;100039.50;;;9.39;100.00
74163;BME280;62515;52.758;5.076;2023-03-23T06:02:56;100047.09;;;9.32;100.00
74163;BME280;62515;52.758;5.076;2023-03-23T06:05:35;100061.69;;;9.38;100.00
74163;BME280;62515;52.758;5.076;2023-03-23T06:08:00;100073.88;;;9.40;100.00
74163;BME280;62515;52.758;5.076;2023-03-23T06:10:26;100074.47;;;9.44;100.00
74163;BME280;62515;52.758;5.076;2023-03-23T06:13:00;100074.00;;;9.50;100.00
74163;BME280;62515;52.758;5.076;2023-03-23T06:15:37;100080.75;;;9.54;100.00
74163;BME280;62515;52.758;5.076;2023-03-23T06:18:18;100092.47;;;9.52;100.00
74163;BME280;62515;52.758;5.076;2023-03-23T06:21:05;100097.03;;;9.50;100.00
74163;BME280;62515;52.758;5.076;2023-03-23T06:23:46;100092.34;;;9.42;100.00
74163;BME280;62515;52.758;5.076;2023-03-23T06:26:13;100093.06;;;9.44;100.00
74163;BME280;62515;52.758;5.076;2023-03-23T06:41:09;100119.16;;;9.61;100.00
74163;BME280;62515;52.758;5.076;2023-03-23T06:44:03;100116.97;;;9.55;100.00
74163;BME280;62515;52.758;5.076;2023-03-23T06:47:35;100115.38;;;9.53;100.00
74163;BME280;62515;52.758;5.076;2023-03-23T06:50:55;100112.41;;;9.46;100.00
74163;BME280;62515;52.758;5.076;2023-03-23T06:54:39;100122.66;;;9.51;100.00
74163;BME280;62515;52.758;5.076;2023-03-23T07:32:28;100152.34;;;9.67;100.00
74163;BME280;62515;52.758;5.076;2023-03-23T07:34:55;100151.00;;;9.72;100.00
74163;BME280;62515;52.758;5.076;2023-03-23T07:37:42;100152.00;;;9.71;100.00
74163;BME280;62515;52.758;5.076;2023-03-23T07:40:09;100143.19;;;9.71;100.00
74163;BME280;62515;52.758;5.076;2023-03-23T07:42:36;100151.16;;;9.71;100.00
74163;BME280;62515;52.758;5.076;2023-03-23T07:45:02;100153.47;;;9.75;100.00
74163;BME280;62515;52.758;5.076;2023-03-23T07:47:33;100159.84;;;9.84;100.00
74163;BME280;62515;52.758;5.076;2023-03-23T07:49:59;100161.41;;;9.86;100.00
74163;BME280;62515;52.758;5.076;2023-03-23T07:52:33;100167.19;;;10.03;100.00
74163;BME280;62515;52.758;5.076;2023-03-23T07:54:59;100160.63;;;10.40;100.00
74163;BME280;62515;52.758;5.076;2023-03-23T07:57:48;100163.00;;;10.54;100.00
74163;BME280;62515;52.758;5.076;2023-03-23T08:00:16;100172.47;;;10.79;100.00
74163;BME280;62515;52.758;5.076;2023-03-23T08:02:48;100164.13;;;11.25;100.00
74163;BME280;62515;52.758;5.076;2023-03-23T08:05:35;100163.63;;;11.31;100.00
74163;BME280;62515;52.758;5.076;2023-03-23T08:08:20;100168.47;;;11.26;100.00
74163;BME280;62515;52.758;5.076;2023-03-23T08:11:05;100173.00;;;12.26;100.00
74163;BME280;62515;52.758;5.076;2023-03-23T08:13:59;100176.63;;;12.05;100.00
74163;BME280;62515;52.758;5.076;2023-03-23T08:16:40;100177.88;;;12.99;100.00
74163;BME280;62515;52.758;5.076;2023-03-23T08:22:51;100170.56;;;12.63;100.00
74163;BME280;62515;52.758;5.076;2023-03-23T08:25:36;100176.75;;;12.53;100.00
74163;BME280;62515;52.758;5.076;2023-03-23T08:28:14;100181.97;;;12.65;100.00
74163;BME280;62515;52.758;5.076;2023-03-23T08:30:59;100184.09;;;12.80;100.00
74163;BME280;62515;52.758;5.076;2023-03-23T08:33:45;100187.31;;;12.65;100.00
74163;BME280;62515;52.758;5.076;2023-03-23T08:36:31;100193.97;;;12.40;100.00
74163;BME280;62515;52.758;5.076;2023-03-23T08:49:32;100187.16;;;12.66;100.00
74163;BME280;62515;52.758;5.076;2023-03-23T08:52:09;100193.75;;;12.62;100.00
74163;BME280;62515;52.758;5.076;2023-03-23T08:54:52;100185.44;;;12.55;100.00
74163;BME280;62515;52.758;5.076;2023-03-23T08:57:50;100196.97;;;12.66;100.00
74163;BME280;62515;52.758;5.076;2023-03-23T09:00:27;100200.94;;;12.12;100.00
74163;BME280;62515;52.758;5.076;2023-03-23T09:03:00;100201.59;;;12.04;100.00
74163;BME280;62515;52.758;5.076;2023-03-23T09:29:36;100204.91;;;13.25;100.00
74163;BME280;62515;52.758;5.076;2023-03-23T09:32:03;100220.03;;;13.53;100.00
74163;BME280;62515;52.758;5.076;2023-03-23T09:34:29;100213.34;;;13.39;100.00
74163;BME280;62515;52.758;5.076;2023-03-23T09:36:56;100198.59;;;13.72;100.00
74163;BME280;62515;52.758;5.076;2023-03-23T09:39:22;100201.78;;;13.48;100.00
74163;BME280;62515;52.758;5.076;2023-03-23T09:42:03;100196.19;;;14.15;100.00
74163;BME280;62515;52.758;5.076;2023-03-23T09:44:53;100204.56;;;14.40;100.00
74163;BME280;62515;52.758;5.076;2023-03-23T09:47:28;100210.09;;;14.56;100.00
74163;BME280;62515;52.758;5.076;2023-03-23T09:49:59;100207.38;;;14.38;100.00
74163;BME280;62515;52.758;5.076;2023-03-23T09:52:51;100206.88;;;14.52;100.00
74163;BME280;62515;52.758;5.076;2023-03-23T09:55:35;100218.09;;;13.92;100.00
74163;BME280;62515;52.758;5.076;2023-03-23T09:58:16;100226.06;;;13.74;100.00
74163;BME280;62515;52.758;5.076;2023-03-23T10:00:52;100229.44;;;13.76;100.00
74163;BME280;62515;52.758;5.076;2023-03-23T10:03:45;100234.34;;;14.18;100.00
74163;BME280;62515;52.758;5.076;2023-03-23T10:06:35;100238.13;;;14.25;100.00
74163;BME280;62515;52.758;5.076;2023-03-23T10:09:20;100249.66;;;13.88;100.00
74163;BME280;62515;52.758;5.076;2023-03-23T10:11:54;100242.19;;;13.92;100.00
74163;BME280;62515;52.758;5.076;2023-03-23T10:14:37;100227.53;;;13.96;100.00
74163;BME280;62515;52.758;5.076;2023-03-23T11:13:21;100280.06;;;14.71;100.00
74163;BME280;62515;52.758;5.076;2023-03-23T11:15:49;100286.56;;;14.95;100.00
74163;BME280;62515;52.758;5.076;2023-03-23T11:18:21;100279.06;;;15.16;100.00
74163;BME280;62515;52.758;5.076;2023-03-23T11:20:49;100290.09;;;15.66;100.00
74163;BME280;62515;52.758;5.076;2023-03-23T11:23:19;100288.69;;;15.45;100.00
74163;BME280;62515;52.758;5.076;2023-03-23T11:26:15;100286.53;;;15.84;100.00
74163;BME280;62515;52.758;5.076;2023-03-23T11:35:00;100300.44;;;16.05;100.00
74163;BME280;62515;52.758;5.076;2023-03-23T11:37:34;100302.94;;;15.81;100.00
74163;BME280;62515;52.758;5.076;2023-03-23T11:40:16;100283.22;;;15.90;100.00
74163;BME280;62515;52.758;5.076;2023-03-23T11:42:45;100291.81;;;16.53;100.00
74163;BME280;62515;52.758;5.076;2023-03-23T11:45:19;100297.25;;;16.61;100.00
74163;BME280;62515;52.758;5.076;2023-03-23T11:47:56;100286.66;;;17.17;100.00
74163;BME280;62515;52.758;5.076;2023-03-23T11:50:50;100296.94;;;16.64;100.00
74163;BME280;62515;52.758;5.076;2023-03-23T11:53:42;100296.41;;;17.26;100.00
74163;BME280;62515;52.758;5.076;2023-03-23T11:56:17;100289.72;;;17.47;100.00
74163;BME280;62515;52.758;5.076;2023-03-23T11:58:47;100305.22;;;17.77;100.00
74163;BME280;62515;52.758;5.076;2023-03-23T12:01:48;100311.59;;;17.36;100.00
74163;BME280;62515;52.758;5.076;2023-03-23T12:16:14;100293.59;;;16.10;100.00
74163;BME280;62515;52.758;5.076;2023-03-23T12:18:48;100291.06;;;16.35;100.00
74163;BME280;62515;52.758;5.076;2023-03-23T12:21:31;100297.19;;;16.87;100.00
74163;BME280;62515;52.758;5.076;2023-03-23T12:24:05;100292.28;;;16.14;100.00
74163;BME280;62515;52.758;5.076;2023-03-23T12:26:54;100286.69;;;15.82;100.00
74163;BME280;62515;52.758;5.076;2023-03-23T12:29:45;100273.47;;;16.14;100.00
74163;BME280;62515;52.758;5.076;2023-03-23T12:33:07;100284.72;;;16.44;100.00
74163;BME280;62515;52.758;5.076;2023-03-23T12:35:44;100285.97;;;15.98;100.00
74163;BME280;62515;52.758;5.076;2023-03-23T12:38:28;100296.25;;;15.85;100.00
74163;BME280;62515;52.758;5.076;2023-03-23T12:41:04;100247.50;;;15.10;100.00
74163;BME280;62515;52.758;5.076;2023-03-23T12:43:38;100288.22;;;15.32;100.00
74163;BME280;62515;52.758;5.076;2023-03-23T12:46:38;100289.59;;;15.00;100.00
74163;BME280;62515;52.758;5.076;2023-03-23T12:49:12;100287.69;;;15.10;100.00
74163;BME280;62515;52.758;5.076;2023-03-23T12:51:42;100283.88;;;15.13;100.00
74163;BME280;62515;52.758;5.076;2023-03-23T12:54:16;100286.72;;;15.11;100.00
74163;BME280;62515;52.758;5.076;2023-03-23T12:56:48;100300.06;;;14.49;100.00
74163;BME280;62515;52.758;5.076;2023-03-23T12:59:21;100295.72;;;14.29;100.00
74163;BME280;62515;52.758;5.076;2023-03-23T13:01:54;100291.97;;;14.12;100.00
74163;BME280;62515;52.758;5.076;2023-03-23T13:04:27;100292.81;;;14.12;100.00
74163;BME280;62515;52.758;5.076;2023-03-23T13:06:57;100303.25;;;14.15;100.00
74163;BME280;62515;52.758;5.076;2023-03-23T13:09:27;100290.97;;;14.23;100.00
74163;BME280;62515;52.758;5.076;2023-03-23T13:11:55;100294.53;;;14.50;100.00
74163;BME280;62515;52.758;5.076;2023-03-23T13:14:29;100298.69;;;14.35;100.00
74163;BME280;62515;52.758;5.076;2023-03-23T13:17:19;100293.72;;;14.31;100.00
74163;BME280;62515;52.758;5.076;2023-03-23T13:19:59;100283.53;;;14.53;100.00
74163;BME280;62515;52.758;5.076;2023-03-23T13:22:35;100295.75;;;14.65;100.00
74163;BME280;62515;52.758;5.076;2023-03-23T13:25:10;100296.03;;;14.26;100.00
74163;BME280;62515;52.758;5.076;2023-03-23T13:27:56;100285.34;;;14.62;100.00
74163;BME280;62515;52.758;5.076;2023-03-23T13:30:22;100302.44;;;14.52;100.00
74163;BME280;62515;52.758;5.076;2023-03-23T13:32:49;100290.06;;;14.41;100.00
74163;BME280;62515;52.758;5.076;2023-03-23T13:35:17;100281.78;;;14.35;100.00
74163;BME280;62515;52.758;5.076;2023-03-23T13:37:46;100287.94;;;14.45;100.00
74163;BME280;62515;52.758;5.076;2023-03-23T13:40:27;100282.94;;;14.23;100.00
74163;BME280;62515;52.758;5.076;2023-03-23T13:42:56;100297.59;;;14.19;100.00
74163;BME280;62515;52.758;5.076;2023-03-23T13:45:42;100303.53;;;14.12;100.00
74163;BME280;62515;52.758;5.076;2023-03-23T13:48:20;100290.22;;;14.40;100.00
74163;BME280;62515;52.758;5.076;2023-03-23T13:50:50;100279.22;;;14.43;100.00
74163;BME280;62515;52.758;5.076;2023-03-23T13:53:23;100288.16;;;14.34;100.00
74163;BME280;62515;52.758;5.076;2023-03-23T13:56:18;100282.13;;;14.12;100.00
74163;BME280;62515;52.758;5.076;2023-03-23T13:59:32;100284.03;;;14.30;100.00
74163;BME280;62515;52.758;5.076;2023-03-23T14:02:35;100299.63;;;13.97;100.00
74163;BME280;62515;52.758;5.076;2023-03-23T14:11:24;100281.00;;;14.05;100.00
74163;BME280;62515;52.758;5.076;2023-03-23T14:13:59;100288.38;;;13.94;100.00
74163;BME280;62515;52.758;5.076;2023-03-23T14:16:36;100279.25;;;13.87;100.00
74163;BME280;62515;52.758;5.076;2023-03-23T14:19:23;100287.91;;;14.08;100.00
74163;BME280;62515;52.758;5.076;2023-03-23T14:21:54;100284.63;;;14.24;100.00
74163;BME280;62515;52.758;5.076;2023-03-23T14:24:40;100265.22;;;14.12;100.00
74163;BME280;62515;52.758;5.076;2023-03-23T14:27:14;100281.06;;;13.86;100.00
74163;BME280;62515;52.758;5.076;2023-03-23T14:29:40;100272.41;;;13.65;100.00
74163;BME280;62515;52.758;5.076;2023-03-23T14:32:13;100276.28;;;13.80;100.00
74163;BME280;62515;52.758;5.076;2023-03-23T14:34:40;100279.78;;;13.90;100.00
74163;BME280;62515;52.758;5.076;2023-03-23T14:37:11;100261.59;;;14.03;100.00
74163;BME280;62515;52.758;5.076;2023-03-23T14:39:39;100275.06;;;14.11;100.00
74163;BME280;62515;52.758;5.076;2023-03-23T14:42:12;100268.97;;;13.82;100.00
74163;BME280;62515;52.758;5.076;2023-03-23T14:44:52;100263.03;;;13.98;100.00
74163;BME280;62515;52.758;5.076;2023-03-23T14:47:23;100265.69;;;14.07;100.00
74163;BME280;62515;52.758;5.076;2023-03-23T14:49:53;100262.44;;;14.04;100.00
74163;BME280;62515;52.758;5.076;2023-03-23T14:52:22;100274.16;;;13.93;100.00
74163;BME280;62515;52.758;5.076;2023-03-23T14:54:48;100268.63;;;13.95;100.00
74163;BME280;62515;52.758;5.076;2023-03-23T14:57:25;100265.47;;;13.82;100.00
74163;BME280;62515;52.758;5.076;2023-03-23T14:59:51;100262.38;;;13.67;100.00
74163;BME280;62515;52.758;5.076;2023-03-23T15:02:22;100262.28;;;13.59;100.00
74163;BME280;62515;52.758;5.076;2023-03-23T15:04:54;100255.78;;;13.71;100.00
74163;BME280;62515;52.758;5.076;2023-03-23T15:07:21;100242.06;;;13.93;100.00
74163;BME280;62515;52.758;5.076;2023-03-23T15:09:50;100232.84;;;14.05;100.00
74163;BME280;62515;52.758;5.076;2023-03-23T15:12:22;100238.50;;;14.02;100.00
74163;BME280;62515;52.758;5.076;2023-03-23T15:14:50;100238.56;;;13.83;100.00
74163;BME280;62515;52.758;5.076;2023-03-23T15:17:21;100233.59;;;13.88;100.00
74163;BME280;62515;52.758;5.076;2023-03-23T15:19:48;100254.06;;;13.80;100.00
74163;BME280;62515;52.758;5.076;2023-03-23T15:22:19;100236.03;;;13.72;100.00
74163;BME280;62515;52.758;5.076;2023-03-23T15:24:46;100231.03;;;13.50;100.00
74163;BME280;62515;52.758;5.076;2023-03-23T15:27:14;100227.91;;;13.64;100.00
74163;BME280;62515;52.758;5.076;2023-03-23T15:29:50;100239.09;;;13.96;100.00
74163;BME280;62515;52.758;5.076;2023-03-23T15:32:22;100230.53;;;13.83;100.00
74163;BME280;62515;52.758;5.076;2023-03-23T15:34:48;100227.91;;;13.64;100.00
74163;BME280;62515;52.758;5.076;2023-03-23T15:37:18;100218.91;;;13.65;100.00
74163;BME280;62515;52.758;5.076;2023-03-23T15:39:45;100214.16;;;13.59;100.00
74163;BME280;62515;52.758;5.076;2023-03-23T15:42:21;100212.75;;;13.45;100.00
74163;BME280;62515;52.758;5.076;2023-03-23T15:45:16;100222.34;;;13.38;100.00
74163;BME280;62515;52.758;5.076;2023-03-23T15:47:45;100221.38;;;13.30;100.00
74163;BME280;62515;52.758;5.076;2023-03-23T15:50:15;100216.56;;;13.24;100.00
74163;BME280;62515;52.758;5.076;2023-03-23T15:52:42;100226.28;;;13.25;100.00
74163;BME280;62515;52.758;5.076;2023-03-23T15:55:19;100221.78;;;13.35;100.00
74163;BME280;62515;52.758;5.076;2023-03-23T15:57:47;100229.38;;;13.39;100.00
74163;BME280;62515;52.758;5.076;2023-03-23T16:00:16;100224.44;;;13.35;100.00
74163;BME280;62515;52.758;5.076;2023-03-23T16:02:44;100220.34;;;13.40;100.00
74163;BME280;62515;52.758;5.076;2023-03-23T16:05:12;100221.19;;;13.41;100.00
74163;BME280;62515;52.758;5.076;2023-03-23T16:07:40;100209.38;;;13.43;100.00